createdAt,value
2019-02-08T00:02:21.594Z,100.00
2019-02-08T00:04:54.927Z,100.00
2019-02-08T00:07:26.738Z,100.00
2019-02-08T00:09:59.511Z,100.00
2019-02-08T00:12:31.806Z,100.00
2019-02-08T00:15:04.817Z,100.00
2019-02-08T00:17:36.970Z,100.00
2019-02-08T00:20:10.494Z,100.00
2019-02-08T00:22:42.859Z,100.00
2019-02-08T00:25:18.414Z,100.00
2019-02-08T00:27:49.904Z,100.00
2019-02-08T00:30:25.010Z,100.00
2019-02-08T00:32:56.721Z,100.00
2019-02-08T00:35:29.073Z,100.00
2019-02-08T00:38:01.062Z,100.00
2019-02-08T00:41:26.344Z,100.00
2019-02-08T00:43:57.749Z,100.00
2019-02-08T00:46:29.723Z,100.00
2019-02-08T00:49:01.352Z,100.00
2019-02-08T00:51:32.705Z,100.00
2019-02-08T00:54:04.155Z,100.00
2019-02-08T00:56:35.939Z,100.00
2019-02-08T00:59:07.980Z,100.00
2019-02-08T01:01:39.407Z,100.00
2019-02-08T01:04:11.203Z,100.00
2019-02-08T01:06:42.580Z,100.00
2019-02-08T01:09:13.986Z,100.00
2019-02-08T01:11:45.401Z,100.00
2019-02-08T01:14:16.754Z,100.00
2019-02-08T01:16:48.377Z,100.00
2019-02-08T01:19:19.740Z,100.00
2019-02-08T01:21:51.242Z,100.00
2019-02-08T01:24:22.734Z,100.00
2019-02-08T01:26:54.202Z,100.00
2019-02-08T01:29:26.078Z,100.00
2019-02-08T01:31:57.254Z,100.00
2019-02-08T01:34:28.639Z,100.00
2019-02-08T01:37:00.153Z,100.00
2019-02-08T01:39:31.528Z,100.00
2019-02-08T01:42:03.707Z,100.00
2019-02-08T01:44:34.996Z,100.00
2019-02-08T01:47:07.175Z,100.00
2019-02-08T01:49:38.495Z,100.00
2019-02-08T01:52:10.368Z,100.00
2019-02-08T01:54:41.634Z,100.00
2019-02-08T01:57:13.052Z,100.00
2019-02-08T01:59:44.404Z,100.00
2019-02-08T02:02:16.107Z,100.00
2019-02-08T02:04:47.487Z,100.00
2019-02-08T02:07:19.212Z,100.00
2019-02-08T02:09:50.619Z,100.00
2019-02-08T02:12:22.079Z,100.00
2019-02-08T02:14:53.344Z,100.00
2019-02-08T02:17:24.733Z,100.00
2019-02-08T02:19:56.127Z,100.00
2019-02-08T02:22:27.447Z,100.00
2019-02-08T02:24:58.778Z,100.00
2019-02-08T02:27:30.103Z,100.00
2019-02-08T02:30:01.674Z,100.00
2019-02-08T02:32:33.363Z,100.00
2019-02-08T02:35:05.815Z,100.00
2019-02-08T02:37:37.275Z,100.00
2019-02-08T02:40:10.991Z,100.00
2019-02-08T02:42:42.421Z,100.00
2019-02-08T02:45:21.335Z,100.00
2019-02-08T02:47:52.812Z,100.00
2019-02-08T02:50:24.274Z,100.00
2019-02-08T02:52:55.625Z,100.00
2019-02-08T02:55:28.016Z,100.00
2019-02-08T02:58:00.180Z,100.00
2019-02-08T03:00:48.019Z,100.00
2019-02-08T03:03:19.907Z,100.00
2019-02-08T03:05:51.398Z,100.00
2019-02-08T03:08:22.984Z,100.00
2019-02-08T03:10:54.229Z,100.00
2019-02-08T03:13:25.818Z,100.00
2019-02-08T03:15:57.114Z,100.00
2019-02-08T03:18:28.515Z,100.00
2019-02-08T03:20:59.822Z,100.00
2019-02-08T03:23:31.131Z,100.00
2019-02-08T03:26:02.452Z,100.00
2019-02-08T03:28:33.957Z,100.00
2019-02-08T03:31:05.099Z,100.00
2019-02-08T03:33:36.445Z,100.00
2019-02-08T03:36:08.003Z,100.00
2019-02-08T03:38:39.399Z,100.00
2019-02-08T03:41:10.817Z,100.00
2019-02-08T03:43:42.161Z,100.00
2019-02-08T03:46:13.535Z,100.00
2019-02-08T03:48:44.734Z,100.00
2019-02-08T03:51:16.028Z,100.00
2019-02-08T03:53:47.121Z,100.00
2019-02-08T03:56:18.412Z,100.00
2019-02-08T03:58:49.679Z,100.00
2019-02-08T04:01:21.052Z,100.00
2019-02-08T04:03:52.917Z,100.00
2019-02-08T04:06:24.320Z,100.00
2019-02-08T04:08:56.667Z,100.00
2019-02-08T04:11:28.036Z,100.00
2019-02-08T04:14:00.509Z,100.00
2019-02-08T04:16:33.351Z,100.00
2019-02-08T04:19:06.101Z,100.00
2019-02-08T04:21:37.315Z,100.00
2019-02-08T04:24:09.341Z,100.00
2019-02-08T04:26:41.148Z,100.00
2019-02-08T04:29:12.506Z,100.00
2019-02-08T04:31:43.835Z,100.00
2019-02-08T04:34:18.533Z,100.00
2019-02-08T04:36:50.184Z,100.00
2019-02-08T04:39:21.773Z,100.00
2019-02-08T04:41:53.231Z,100.00
2019-02-08T04:44:24.561Z,100.00
2019-02-08T04:46:56.160Z,100.00
2019-02-08T04:49:27.468Z,100.00
2019-02-08T04:51:58.729Z,100.00
2019-02-08T04:54:37.893Z,100.00
2019-02-08T04:57:03.047Z,100.00
2019-02-08T04:59:34.354Z,100.00
2019-02-08T05:02:06.534Z,100.00
2019-02-08T05:04:38.093Z,100.00
2019-02-08T05:07:27.117Z,100.00
2019-02-08T05:09:58.354Z,100.00
2019-02-08T05:12:29.770Z,100.00
2019-02-08T05:15:01.188Z,100.00
2019-02-08T05:17:32.525Z,100.00
2019-02-08T05:20:04.149Z,100.00
2019-02-08T05:22:35.703Z,100.00
2019-02-08T05:25:07.575Z,100.00
2019-02-08T05:27:39.101Z,100.00
2019-02-08T05:30:16.602Z,100.00
2019-02-08T05:32:48.234Z,100.00
2019-02-08T05:35:20.510Z,100.00
2019-02-08T05:37:52.171Z,100.00
2019-02-08T05:40:24.279Z,100.00
2019-02-08T05:42:55.877Z,100.00
2019-02-08T05:45:27.645Z,100.00
2019-02-08T05:47:59.101Z,100.00
2019-02-08T05:50:30.614Z,100.00
2019-02-08T05:53:02.109Z,100.00
2019-02-08T05:55:34.377Z,100.00
2019-02-08T05:58:07.664Z,100.00
2019-02-08T06:00:59.225Z,100.00
2019-02-08T06:03:30.770Z,100.00
2019-02-08T06:06:02.572Z,100.00
2019-02-08T06:08:33.971Z,100.00
2019-02-08T06:11:05.662Z,100.00
2019-02-08T06:13:37.388Z,100.00
2019-02-08T06:16:09.074Z,100.00
2019-02-08T06:18:40.539Z,100.00
2019-02-08T06:21:12.012Z,100.00
2019-02-08T06:23:44.081Z,100.00
2019-02-08T06:26:15.519Z,100.00
2019-02-08T06:28:47.138Z,100.00
2019-02-08T06:31:18.952Z,100.00
2019-02-08T06:33:50.534Z,100.00
2019-02-08T06:36:21.898Z,100.00
2019-02-08T06:38:53.562Z,100.00
2019-02-08T06:41:25.266Z,100.00
2019-02-08T06:43:56.670Z,100.00
2019-02-08T06:46:27.890Z,100.00
2019-02-08T06:48:59.351Z,100.00
2019-02-08T06:51:30.850Z,100.00
2019-02-08T06:54:02.358Z,100.00
2019-02-08T06:57:10.677Z,100.00
2019-02-08T06:59:48.122Z,100.00
2019-02-08T07:02:44.421Z,100.00
2019-02-08T07:05:38.254Z,100.00
2019-02-08T07:08:27.853Z,100.00
2019-02-08T07:11:17.800Z,100.00
2019-02-08T07:14:08.781Z,100.00
2019-02-08T07:17:05.316Z,100.00
2019-02-08T07:20:01.549Z,100.00
2019-02-08T07:22:50.340Z,100.00
2019-02-08T07:25:34.826Z,100.00
2019-02-08T07:28:18.034Z,100.00
2019-02-08T07:31:01.619Z,100.00
2019-02-08T07:33:57.550Z,100.00
2019-02-08T07:36:46.625Z,100.00
2019-02-08T07:39:34.798Z,100.00
2019-02-08T07:42:34.791Z,100.00
2019-02-08T07:45:13.461Z,100.00
2019-02-08T07:48:05.693Z,100.00
2019-02-08T07:51:02.080Z,100.00
2019-02-08T07:54:05.453Z,99.35
2019-02-08T07:57:07.869Z,95.75
2019-02-08T08:00:10.432Z,94.72
2019-02-08T08:03:10.017Z,93.48
2019-02-08T08:06:04.567Z,94.08
2019-02-08T08:09:07.145Z,71.33
2019-02-08T08:11:49.595Z,55.77
2019-02-08T08:14:59.284Z,50.10
2019-02-08T08:18:07.870Z,46.25
2019-02-08T08:20:57.494Z,45.40
2019-02-08T08:23:55.335Z,42.94
2019-02-08T08:26:47.021Z,40.14
2019-02-08T08:29:45.458Z,41.04
2019-02-08T08:32:33.511Z,41.97
2019-02-08T08:36:03.180Z,45.25
2019-02-08T08:39:40.122Z,49.85
2019-02-08T08:43:10.991Z,52.65
2019-02-08T08:46:50.381Z,51.88
2019-02-08T08:49:58.291Z,48.24
2019-02-08T08:54:06.072Z,44.09
2019-02-08T08:57:19.759Z,41.22
2019-02-08T09:01:06.423Z,44.97
2019-02-08T09:04:28.696Z,48.30
2019-02-08T09:07:51.148Z,45.63
2019-02-08T09:11:32.617Z,43.47
2019-02-08T09:15:22.686Z,41.79
2019-02-08T09:18:59.594Z,40.28
2019-02-08T09:22:12.006Z,40.44
2019-02-08T09:25:34.110Z,39.12
2019-02-08T09:28:51.784Z,41.08
2019-02-08T09:32:22.584Z,42.28
2019-02-08T09:35:25.451Z,46.38
2019-02-08T09:39:14.422Z,50.50
2019-02-08T09:43:05.779Z,53.70
2019-02-08T09:46:44.847Z,56.79
2019-02-08T09:50:09.937Z,58.96
2019-02-08T09:53:41.742Z,57.73
2019-02-08T09:57:10.652Z,55.17
2019-02-08T10:00:43.201Z,54.06
2019-02-08T10:04:03.799Z,52.61
2019-02-08T10:07:29.108Z,52.20
2019-02-08T10:10:57.972Z,51.43
2019-02-08T10:14:31.126Z,49.54
2019-02-08T10:18:07.514Z,49.52
2019-02-08T10:21:18.017Z,48.81
2019-02-08T10:24:46.358Z,49.61
2019-02-08T10:28:17.975Z,50.14
2019-02-08T10:31:56.709Z,50.45
2019-02-08T10:35:20.905Z,48.37
2019-02-08T10:39:01.422Z,40.67
2019-02-08T10:42:34.732Z,34.79
2019-02-08T10:46:13.096Z,34.76
2019-02-08T10:49:42.136Z,34.59
2019-02-08T10:53:20.653Z,32.70
2019-02-08T10:56:58.351Z,30.38
2019-02-08T11:00:56.845Z,30.68
2019-02-08T11:04:19.712Z,30.72
2019-02-08T11:07:52.059Z,30.12
2019-02-08T11:11:23.614Z,28.84
2019-02-08T11:14:52.776Z,31.74
2019-02-08T11:18:36.914Z,29.69
2019-02-08T11:21:08.753Z,30.46
2019-02-08T11:23:40.297Z,29.99
2019-02-08T11:26:12.235Z,31.62
2019-02-08T11:28:43.884Z,32.46
2019-02-08T11:31:16.224Z,33.66
2019-02-08T11:33:47.865Z,34.03
2019-02-08T11:36:19.480Z,34.32
2019-02-08T11:38:51.225Z,33.13
2019-02-08T11:41:22.707Z,31.17
2019-02-08T11:43:54.705Z,29.85
2019-02-08T11:46:26.257Z,29.66
2019-02-08T11:48:57.690Z,29.79
2019-02-08T11:51:30.473Z,30.70
2019-02-08T11:54:02.549Z,32.32
2019-02-08T11:56:34.085Z,32.50
2019-02-08T11:59:06.487Z,32.25
2019-02-08T12:01:41.381Z,33.56
2019-02-08T12:04:14.478Z,35.74
2019-02-08T12:06:46.374Z,38.85
2019-02-08T12:09:19.519Z,41.98
2019-02-08T12:11:51.321Z,40.65
2019-02-08T12:14:22.819Z,39.67
2019-02-08T12:16:54.453Z,37.12
2019-02-08T12:19:25.964Z,35.92
2019-02-08T12:21:57.356Z,35.60
2019-02-08T12:24:28.978Z,34.85
2019-02-08T12:27:00.629Z,35.29
2019-02-08T12:29:32.329Z,34.72
2019-02-08T12:32:03.793Z,33.85
2019-02-08T12:34:35.317Z,34.88
2019-02-08T12:37:07.227Z,35.46
2019-02-08T12:39:39.810Z,35.41
2019-02-08T12:42:11.320Z,33.66
2019-02-08T12:44:42.926Z,32.51
2019-02-08T12:47:14.441Z,33.98
2019-02-08T12:49:46.068Z,35.89
2019-02-08T12:52:17.862Z,36.99
2019-02-08T12:54:50.111Z,33.92
2019-02-08T12:57:23.171Z,34.12
2019-02-08T12:59:55.311Z,34.21
2019-02-08T13:02:27.065Z,34.60
2019-02-08T13:04:59.160Z,34.72
2019-02-08T13:07:31.657Z,34.58
2019-02-08T13:10:04.255Z,33.58
2019-02-08T13:12:36.256Z,33.63
2019-02-08T13:15:10.609Z,35.44
2019-02-08T13:17:42.087Z,36.84
2019-02-08T13:20:17.836Z,36.32
2019-02-08T13:22:49.459Z,34.78
2019-02-08T13:25:21.303Z,34.18
2019-02-08T13:27:53.292Z,34.56
2019-02-08T13:30:28.582Z,33.06
2019-02-08T13:33:00.495Z,31.81
2019-02-08T13:35:32.288Z,31.31
2019-02-08T13:38:04.404Z,29.50
2019-02-08T13:40:36.014Z,28.68
2019-02-08T13:43:07.804Z,29.09
2019-02-08T13:45:39.666Z,28.48
2019-02-08T13:48:11.094Z,27.48
2019-02-08T13:50:42.597Z,28.20
2019-02-08T13:53:13.925Z,27.50
2019-02-08T13:55:45.463Z,27.35
2019-02-08T13:58:17.901Z,26.45
2019-02-08T14:00:49.616Z,26.01
2019-02-08T14:03:21.628Z,26.20
2019-02-08T14:05:53.232Z,26.64
2019-02-08T14:08:26.705Z,26.63
2019-02-08T14:10:59.030Z,25.92
2019-02-08T14:13:30.606Z,26.17
2019-02-08T14:16:02.440Z,26.53
2019-02-08T14:18:34.027Z,25.88
2019-02-08T14:21:06.137Z,26.34
2019-02-08T14:23:37.903Z,26.18
2019-02-08T14:26:09.439Z,26.82
2019-02-08T14:28:41.116Z,26.64
2019-02-08T14:31:13.102Z,26.60
2019-02-08T14:33:45.610Z,26.71
2019-02-08T14:36:18.074Z,28.30
2019-02-08T14:38:49.585Z,28.42
2019-02-08T14:41:21.202Z,28.36
2019-02-08T14:43:52.917Z,28.11
2019-02-08T14:46:24.560Z,29.12
2019-02-08T14:48:57.642Z,29.90
2019-02-08T14:51:29.366Z,30.02
2019-02-08T14:54:00.810Z,29.71
2019-02-08T14:56:32.978Z,30.07
2019-02-08T14:59:04.467Z,30.53
2019-02-08T15:01:36.717Z,30.91
2019-02-08T15:04:09.274Z,32.74
2019-02-08T15:06:40.869Z,33.48
2019-02-08T15:09:13.772Z,34.13
2019-02-08T15:11:45.412Z,34.09
2019-02-08T15:14:16.929Z,35.36
2019-02-08T15:16:48.652Z,35.30
2019-02-08T15:19:20.194Z,34.17
2019-02-08T15:21:51.834Z,34.82
2019-02-08T15:24:23.284Z,34.73
2019-02-08T15:26:55.581Z,34.68
2019-02-08T15:29:28.119Z,34.94
2019-02-08T15:31:59.730Z,34.78
2019-02-08T15:34:57.093Z,35.07
2019-02-08T15:37:54.506Z,35.14
2019-02-08T15:43:57.305Z,35.51
2019-02-08T15:46:51.204Z,36.77
2019-02-08T15:49:48.292Z,36.68
2019-02-08T15:52:35.898Z,37.62
2019-02-08T15:55:28.924Z,38.21
2019-02-08T15:58:24.013Z,39.19
2019-02-08T16:01:33.084Z,39.35
2019-02-08T16:04:24.612Z,39.91
2019-02-08T16:08:17.352Z,40.89
2019-02-08T16:10:58.243Z,41.49
2019-02-08T16:14:18.236Z,44.39
2019-02-08T16:17:00.613Z,45.88
2019-02-08T16:19:48.139Z,47.26
2019-02-08T16:22:30.537Z,48.84
2019-02-08T16:25:42.445Z,50.69
2019-02-08T16:28:34.835Z,51.28
2019-02-08T16:31:32.033Z,66.07
2019-02-08T16:34:40.072Z,54.51
2019-02-08T16:37:33.553Z,53.55
2019-02-08T16:40:38.313Z,55.34
2019-02-08T16:43:29.211Z,56.91
2019-02-08T16:46:23.920Z,58.49
2019-02-08T16:49:16.034Z,60.60
2019-02-08T16:52:13.832Z,61.17
2019-02-08T16:55:23.741Z,61.83
2019-02-08T17:02:45.415Z,62.33
2019-02-08T17:05:52.923Z,64.01
2019-02-08T17:08:56.155Z,66.09
2019-02-08T17:12:31.510Z,66.45
2019-02-08T17:15:19.633Z,65.54
2019-02-08T17:18:39.069Z,67.54
2019-02-08T17:21:48.423Z,68.69
2019-02-08T17:24:31.183Z,67.29
2019-02-08T17:27:29.292Z,68.42
2019-02-08T17:30:45.188Z,69.78
2019-02-08T17:33:48.521Z,70.47
2019-02-08T17:36:36.504Z,71.99
2019-02-08T17:39:26.098Z,71.69
2019-02-08T17:42:34.935Z,71.39
2019-02-08T17:45:38.890Z,72.04
2019-02-08T17:48:53.412Z,72.85
2019-02-08T17:51:38.914Z,73.49
2019-02-08T17:54:42.296Z,74.48
2019-02-08T17:57:48.096Z,75.22
2019-02-08T18:01:36.712Z,76.09
2019-02-08T18:04:37.354Z,76.95
2019-02-08T18:07:22.962Z,78.07
2019-02-08T18:10:38.263Z,79.83
2019-02-08T18:13:58.208Z,79.93
2019-02-08T18:17:05.031Z,77.79
2019-02-08T18:19:53.907Z,77.42
2019-02-08T18:23:16.284Z,76.85
2019-02-08T18:26:51.730Z,77.17
2019-02-08T18:30:02.426Z,77.13
2019-02-08T18:32:55.547Z,77.30
2019-02-08T18:36:02.559Z,77.11
2019-02-08T18:39:06.029Z,77.66
2019-02-08T18:41:54.733Z,81.72
2019-02-08T18:45:25.530Z,83.90
2019-02-08T18:48:14.948Z,83.58
2019-02-08T18:51:03.757Z,84.65
2019-02-08T18:53:50.218Z,85.01
2019-02-08T18:56:39.131Z,84.83
2019-02-08T18:59:26.050Z,85.20
2019-02-08T19:02:18.586Z,85.58
2019-02-08T19:05:05.857Z,85.72
2019-02-08T19:07:57.643Z,86.20
2019-02-08T19:10:45.429Z,86.55
2019-02-08T19:13:27.419Z,86.95
2019-02-08T19:16:17.091Z,87.49
2019-02-08T19:19:06.716Z,84.12
2019-02-08T19:21:51.065Z,80.77
2019-02-08T19:24:50.396Z,78.98
2019-02-08T19:27:37.981Z,78.57
2019-02-08T19:30:27.665Z,80.98
2019-02-08T19:33:15.376Z,83.32
2019-02-08T19:36:01.709Z,84.71
2019-02-08T19:38:53.108Z,86.08
2019-02-08T19:41:55.447Z,87.11
2019-02-08T19:44:40.479Z,87.25
2019-02-08T19:47:39.220Z,87.58
2019-02-08T19:50:30.669Z,87.24
2019-02-08T19:53:13.138Z,86.88
2019-02-08T19:56:00.689Z,85.00
2019-02-08T19:58:54.745Z,84.42
2019-02-08T20:01:57.761Z,84.49
2019-02-08T20:04:47.125Z,84.28
2019-02-08T20:08:08.921Z,85.12
2019-02-08T20:10:58.548Z,86.80
2019-02-08T20:13:56.179Z,89.63
2019-02-08T20:16:45.989Z,90.67
2019-02-08T20:19:37.642Z,91.49
2019-02-08T20:22:32.556Z,92.59
2019-02-08T20:25:34.424Z,92.93
2019-02-08T20:29:14.292Z,93.44
2019-02-08T20:32:03.509Z,93.64
2019-02-08T20:34:36.459Z,93.99
2019-02-08T20:37:45.724Z,90.85
2019-02-08T20:40:25.134Z,89.74
2019-02-08T20:43:12.996Z,89.27
2019-02-08T20:46:29.020Z,87.81
2019-02-08T20:49:05.051Z,87.56
2019-02-08T20:51:43.315Z,88.56
2019-02-08T20:54:20.308Z,90.17
2019-02-08T20:57:01.268Z,91.54
2019-02-08T20:59:44.422Z,92.79
2019-02-08T21:02:24.417Z,92.48
2019-02-08T21:04:57.548Z,90.88
2019-02-08T21:07:41.994Z,89.01
2019-02-08T21:10:18.166Z,88.03
2019-02-08T21:12:51.086Z,88.12
2019-02-08T21:15:28.379Z,87.21
2019-02-08T21:18:13.741Z,86.90
2019-02-08T21:20:48.981Z,87.58
2019-02-08T21:23:24.582Z,89.12
2019-02-08T21:25:58.204Z,91.94
2019-02-08T21:28:30.427Z,93.17
2019-02-08T21:31:02.503Z,93.71
2019-02-08T21:33:34.742Z,94.32
2019-02-08T21:36:07.484Z,95.65
2019-02-08T21:38:42.122Z,97.05
2019-02-08T21:41:14.714Z,97.89
2019-02-08T21:43:47.047Z,98.92
2019-02-08T21:46:19.878Z,99.45
2019-02-08T21:48:52.987Z,96.19
2019-02-08T21:51:25.261Z,92.42
2019-02-08T21:53:57.188Z,90.39
2019-02-08T21:56:31.574Z,89.72
2019-02-08T21:59:06.284Z,90.78
2019-02-08T22:01:37.177Z,92.55
2019-02-08T22:04:09.579Z,96.41
2019-02-08T22:06:41.986Z,96.35
2019-02-08T22:09:15.518Z,96.89
2019-02-08T22:11:47.632Z,97.76
2019-02-08T22:14:19.269Z,98.81
2019-02-08T22:16:51.341Z,99.19
2019-02-08T22:19:22.915Z,99.88
2019-02-08T22:21:54.423Z,99.49
2019-02-08T22:24:26.047Z,97.84
2019-02-08T22:26:57.909Z,96.35
2019-02-08T22:29:29.608Z,95.59
2019-02-08T22:32:01.344Z,94.79
2019-02-08T22:34:32.996Z,95.55
2019-02-08T22:37:05.046Z,96.10
2019-02-08T22:39:36.742Z,96.86
2019-02-08T22:42:09.035Z,97.65
2019-02-08T22:44:44.383Z,98.69
2019-02-08T22:47:22.768Z,99.36
2019-02-08T22:50:04.872Z,100.00
2019-02-08T22:52:41.984Z,100.00
2019-02-08T22:55:19.739Z,100.00
2019-02-08T22:57:54.107Z,100.00
2019-02-08T23:01:25.746Z,100.00
2019-02-08T23:04:03.231Z,100.00
2019-02-08T23:06:48.788Z,100.00
2019-02-08T23:09:30.565Z,99.03
2019-02-08T23:12:10.184Z,96.59
2019-02-08T23:14:43.153Z,95.65
2019-02-08T23:17:18.164Z,96.19
2019-02-08T23:19:52.749Z,97.41
2019-02-08T23:22:26.074Z,98.43
2019-02-08T23:25:06.975Z,99.09
2019-02-08T23:27:41.403Z,99.30
2019-02-08T23:30:18.289Z,99.79
2019-02-08T23:32:57.435Z,100.00
2019-02-08T23:35:32.591Z,100.00
2019-02-08T23:38:09.358Z,100.00
2019-02-08T23:40:52.216Z,100.00
2019-02-08T23:43:27.133Z,100.00
2019-02-08T23:46:00.332Z,100.00
2019-02-08T23:48:34.788Z,100.00
2019-02-08T23:51:10.761Z,100.00
2019-02-08T23:53:44.716Z,100.00
2019-02-08T23:57:22.612Z,100.00
2019-02-08T23:59:57.692Z,100.00
